PDT,Max TemperatureF,Mean TemperatureF,Min TemperatureF,Max Dew PointF,MeanDew PointF,Min DewpointF,Max Humidity, Mean Humidity, Min Humidity, Max Sea Level PressureIn, Mean Sea Level PressureIn, Min Sea Level PressureIn, Max VisibilityMiles, Mean VisibilityMiles, Min VisibilityMiles, Max Wind SpeedMPH, Mean Wind SpeedMPH, Max Gust SpeedMPH,PrecipitationIn, CloudCover, Events, WindDirDegrees
2012-10-1,71,55,44,57,49,41,90,79,56,30.37,30.23,30.15,10,10,10,20,6,34,0.00,2,,301
2012-10-2,57,48,41,47,45,35,97,86,69,30.35,30.22,30.18,10,7,0,10,5,,0.00,5,Fog,272
2012-10-3,61,52,42,36,32,28,68,50,32,30.44,30.38,30.31,10,10,10,9,6,,0.00,0,,162
2012-10-4,63,50,39,37,33,30,71,53,32,30.34,30.31,30.27,10,10,10,10,6,,0.00,0,,181
2012-10-5,64,50,37,41,33,27,77,51,26,30.32,30.28,30.24,10,10,10,10,8,,0.00,0,,189
2012-10-6,66,52,39,38,35,31,79,52,28,30.27,30.21,30.14,10,10,10,10,7,,0.00,0,,177
2012-10-7,73,58,45,42,38,33,77,53,29,30.14,30.04,29.93,10,10,10,9,4,,0.00,0,,180
2012-10-8,63,51,39,49,44,37,96,77,52,30.04,29.97,29.93,10,9,2,10,3,,0.00,2,,282
2012-10-9,57,52,43,48,46,42,97,82,69,30.13,30.09,30.05,10,10,9,8,5,,0.00,5,,284
2012-10-10,55,48,41,47,44,38,97,84,69,30.06,30.03,29.99,10,10,10,8,4,,0.00,3,,281
2012-10-11,51,49,48,46,45,44,90,85,80,30.01,29.93,29.82,10,10,9,7,4,,0.00,8,,144
2012-10-12,54,50,48,50,48,46,96,90,82,29.94,29.86,29.81,10,8,2,8,3,,0.03,8,Rain,265
2012-10-13,61,54,48,55,51,46,97,92,81,30.06,30.02,29.96,10,7,0,6,2,,0.06,7,Fog-Rain,337
2012-10-14,64,58,51,57,53,50,100,94,70,30.01,29.89,29.80,10,5,0,12,4,18,0.02,6,Fog-Rain,284
2012-10-15,57,52,46,54,50,44,97,92,77,29.93,29.65,29.46,10,6,0,16,5,21,0.12,6,Fog-Rain,289
2012-10-16,57,52,48,49,42,39,83,68,56,30.28,30.00,29.60,10,10,10,22,15,34,0.01,3,Rain,272
2012-10-17,55,50,45,44,41,37,90,73,57,30.32,30.27,30.20,10,10,10,13,7,,0.00,4,,251
2012-10-18,53,48,44,47,45,41,96,90,80,30.22,29.94,29.70,10,8,0,13,2,,0.13,6,Fog-Rain,69
2012-10-19,55,49,44,51,46,40,100,90,66,29.81,29.74,29.68,10,6,0,20,6,28,0.05,6,Fog-Rain,290
2012-10-20,50,44,36,40,37,34,93,77,54,29.86,29.83,29.81,10,10,7,25,9,32,0.04,5,Rain,260
2012-10-21,48,40,33,40,37,32,96,83,68,29.85,29.82,29.78,10,10,6,10,4,,0.07,3,Rain,215
2012-10-22,45,40,35,41,37,33,93,86,74,29.77,29.64,29.58,10,10,10,8,4,,0.00,7,Rain,197
2012-10-23,48,42,37,43,39,35,97,85,71,29.84,29.75,29.64,10,10,10,8,5,,0.00,6,Rain,237
2012-10-24,51,44,41,42,40,37,93,83,71,30.18,29.94,29.83,10,10,10,10,4,,0.00,6,,258
2012-10-25,51,47,43,44,42,40,93,83,74,30.41,30.33,30.19,10,10,10,7,2,,0.00,6,Rain,65
2012-10-26,50,46,42,45,43,40,96,89,74,30.28,30.11,30.01,10,10,6,8,3,,0.01,7,Rain,268
2012-10-27,50,48,46,47,46,45,96,94,87,30.01,29.84,29.71,10,6,0,7,2,,0.09,8,Fog-Rain,114
2012-10-28,55,52,48,50,48,46,97,89,77,29.94,29.88,29.76,10,9,2,13,3,,0.00,7,Rain,265
2012-10-29,60,53,46,52,48,45,100,92,72,29.96,29.81,29.69,10,5,0,9,4,,0.02,5,Fog-Rain,202
2012-10-30,53,50,48,52,50,47,97,95,92,29.92,29.81,29.72,10,4,0,7,2,,0.28,8,Fog-Rain,114
2012-10-31,55,52,48,53,51,48,100,95,89,29.74,29.65,29.56,10,4,0,7,2,,0.26,8,Fog-Rain,107